Time;durP1;ratioP1;P1;durP2;ratioP2;P2;SDS_P1;SDS_P2;PMS_P1;PMS_P2;Temp;Humidity;BMP_temperature;BMP_pressure;BME280_temperature;BME280_humidity;BME280_pressure;Samples;Min_cycle;Max_cycle;Signal;HPM_P1;HPM_P2
2022/03/12 00:00:09;;;;;;;7.32;1.40;;;;;;;11.62;74.34;99143.38;5055091;28;20032;-86
2022/03/12 00:02:35;;;;;;;9.40;1.38;;;;;;;11.29;75.12;99132.38;5054398;28;20395;-86
2022/03/12 00:05:06;;;;;;;13.10;1.27;;;;;;;11.35;74.67;99133.59;5054013;28;20032;-87
2022/03/12 00:07:32;;;;;;;8.02;1.27;;;;;;;11.35;74.84;99147.56;5055450;28;20111;-86
2022/03/12 00:09:57;;;;;;;5.28;1.10;;;;;;;11.14;75.54;99150.38;5054273;28;20037;-86
2022/03/12 00:12:24;;;;;;;10.80;1.30;;;;;;;11.03;76.00;99151.31;5055379;28;20052;-86
2022/03/12 00:14:50;;;;;;;12.13;1.20;;;;;;;11.20;75.58;99146.38;5055443;28;20025;-86
2022/03/12 00:17:18;;;;;;;15.60;1.67;;;;;;;11.36;74.85;99138.72;5055603;28;20091;-86
2022/03/12 00:19:44;;;;;;;12.32;2.00;;;;;;;11.17;75.01;99141.38;5066226;28;20025;-86
2022/03/12 00:22:10;;;;;;;16.70;2.17;;;;;;;11.34;74.44;99143.31;5063619;28;20106;-86
2022/03/12 00:24:40;;;;;;;18.83;2.30;;;;;;;11.34;75.20;99145.94;5065773;28;20048;-86
2022/03/12 00:27:08;;;;;;;14.75;1.92;;;;;;;11.39;75.08;99145.50;5064709;28;20017;-86
2022/03/12 00:29:35;;;;;;;10.80;1.45;;;;;;;11.78;74.09;99159.41;5066396;28;20025;-86
2022/03/12 00:32:00;;;;;;;11.80;1.55;;;;;;;11.67;73.95;99163.03;5061651;28;20017;-86
2022/03/12 00:34:26;;;;;;;11.95;1.98;;;;;;;11.43;75.07;99160.00;5064793;28;20021;-86
2022/03/12 00:36:51;;;;;;;10.48;1.52;;;;;;;11.86;73.83;99164.78;5064427;28;20013;-86
2022/03/12 00:39:17;;;;;;;8.77;1.05;;;;;;;11.63;74.15;99168.69;5064509;28;20025;-85
2022/03/12 00:41:42;;;;;;;19.17;2.33;;;;;;;11.66;74.08;99160.53;5063961;28;20143;-85
2022/03/12 00:44:10;;;;;;;10.73;1.20;;;;;;;11.58;74.78;99169.13;5060315;28;20033;-86
2022/03/12 00:46:37;;;;;;;8.43;1.30;;;;;;;11.57;74.55;99171.88;5074408;28;20035;-87
2022/03/12 00:49:02;;;;;;;7.85;0.80;;;;;;;11.58;74.45;99163.06;5058405;28;20021;-86
2022/03/12 00:51:28;;;;;;;5.85;0.77;;;;;;;11.34;74.99;99171.38;5058390;28;20064;-87
2022/03/12 00:53:53;;;;;;;6.35;0.60;;;;;;;11.46;74.28;99165.81;5057225;28;20538;-87
2022/03/12 00:56:19;;;;;;;2.53;0.40;;;;;;;11.52;73.86;99165.25;5053326;28;20067;-87
2022/03/12 00:58:46;;;;;;;5.38;0.80;;;;;;;11.43;74.04;99171.38;5053835;28;20047;-87
2022/03/12 01:01:12;;;;;;;4.85;0.85;;;;;;;11.28;74.33;99164.88;5053961;28;20036;-87
2022/03/12 01:03:39;;;;;;;2.20;0.45;;;;;;;11.06;75.05;99179.94;5053745;28;20112;-87
2022/03/12 01:06:05;;;;;;;4.57;0.80;;;;;;;11.42;73.50;99174.97;5054077;28;20059;-87
2022/03/12 01:08:32;;;;;;;2.55;0.38;;;;;;;11.31;73.20;99162.81;5053962;28;20033;-86
2022/03/12 01:11:00;;;;;;;4.50;0.63;;;;;;;11.28;73.66;99163.06;5052510;28;20033;-87
2022/03/12 01:13:27;;;;;;;0.75;0.20;;;;;;;11.26;73.75;99174.72;5054050;28;20024;-86
2022/03/12 01:15:53;;;;;;;2.75;0.30;;;;;;;11.08;74.36;99172.75;5053648;28;20025;-86
2022/03/12 01:18:20;;;;;;;4.65;0.80;;;;;;;11.07;74.64;99176.34;5053779;28;20036;-86
2022/03/12 01:20:46;;;;;;;2.97;0.45;;;;;;;10.83;75.09;99187.25;5051884;28;20082;-87
2022/03/12 01:23:14;;;;;;;2.35;0.57;;;;;;;11.02;75.06;99188.22;5053625;28;20112;-87
2022/03/12 01:25:43;;;;;;;3.25;0.60;;;;;;;11.11;74.84;99177.72;5053522;28;20502;-87
2022/03/12 01:28:11;;;;;;;2.25;0.52;;;;;;;11.08;75.17;99188.53;5053371;28;20386;-87
2022/03/12 01:30:38;;;;;;;6.05;0.65;;;;;;;11.00;75.27;99177.03;5053436;28;20024;-87
2022/03/12 01:33:04;;;;;;;5.38;0.45;;;;;;;11.00;75.93;99180.50;5053379;28;20414;-86
2022/03/12 01:35:29;;;;;;;5.40;0.65;;;;;;;11.10;75.17;99181.34;5053264;28;20463;-87
2022/03/12 01:37:55;;;;;;;6.70;0.90;;;;;;;11.27;74.54;99181.59;5051935;28;20039;-87
2022/03/12 01:40:20;;;;;;;1.40;0.30;;;;;;;11.10;75.22;99183.97;5052431;28;20037;-86
2022/03/12 01:42:47;;;;;;;3.45;0.40;;;;;;;10.92;75.60;99193.50;5053003;28;20510;-86
2022/03/12 01:45:23;;;;;;;5.85;0.70;;;;;;;11.11;75.45;99193.47;5052963;28;20025;-87
2022/03/12 01:47:48;;;;;;;7.78;1.13;;;;;;;11.14;74.68;99207.31;5052826;28;20025;-86
2022/03/12 01:50:19;;;;;;;3.22;0.45;;;;;;;11.15;75.20;99196.66;5068438;28;20532;-87
2022/03/12 01:52:45;;;;;;;3.63;0.50;;;;;;;10.93;75.60;99210.91;5052908;28;20047;-87
2022/03/12 01:55:10;;;;;;;5.57;0.60;;;;;;;11.00;75.82;99213.78;5052415;28;20379;-87
2022/03/12 01:57:35;;;;;;;6.80;1.08;;;;;;;11.17;75.08;99218.38;5051434;28;20550;-87
2022/03/12 02:00:01;;;;;;;3.03;0.65;;;;;;;11.31;74.55;99222.41;5052399;28;20039;-85
2022/03/12 02:02:28;;;;;;;4.78;0.70;;;;;;;11.11;75.08;99222.38;5052270;28;20105;-86
2022/03/12 02:04:54;;;;;;;3.67;0.47;;;;;;;11.17;74.95;99230.69;5051540;28;20017;-86
2022/03/12 02:07:21;;;;;;;5.10;0.73;;;;;;;11.27;74.83;99226.28;5052527;28;20082;-86
2022/03/12 02:09:47;;;;;;;5.80;1.48;;;;;;;11.07;75.67;99233.31;5051873;28;20033;-86
2022/03/12 02:12:12;;;;;;;2.70;0.57;;;;;;;11.03;75.75;99231.91;5052379;28;20533;-86
2022/03/12 02:14:38;;;;;;;5.15;0.40;;;;;;;11.29;75.01;99226.97;5051783;28;20036;-86
2022/03/12 02:17:11;;;;;;;2.25;0.43;;;;;;;11.34;74.91;99235.28;5052196;28;20025;-86
2022/03/12 02:19:39;;;;;;;8.13;1.63;;;;;;;11.28;74.98;99230.56;5052466;28;20399;-86
2022/03/12 02:22:12;;;;;;;2.90;0.50;;;;;;;11.30;74.86;99233.91;5052250;28;20025;-86
2022/03/12 02:24:39;;;;;;;3.33;0.35;;;;;;;10.98;75.77;99244.63;5052134;28;20032;-86
2022/03/12 02:27:06;;;;;;;7.00;1.00;;;;;;;11.04;75.49;99237.03;5052201;28;20086;-86
2022/03/12 02:29:32;;;;;;;3.42;0.68;;;;;;;11.22;74.74;99245.09;5051352;28;20083;-86
2022/03/12 02:32:01;;;;;;;5.43;0.60;;;;;;;11.23;74.54;99245.91;5052064;28;20125;-86
2022/03/12 02:34:36;;;;;;;3.92;0.50;;;;;;;11.23;74.80;99246.72;5052312;28;20024;-86
2022/03/12 02:37:02;;;;;;;8.63;0.75;;;;;;;11.18;75.09;99240.25;5052025;28;20021;-84
2022/03/12 02:39:27;;;;;;;2.08;0.30;;;;;;;11.22;74.78;99245.09;5051925;28;20036;-86
2022/03/12 02:41:55;;;;;;;3.40;0.60;;;;;;;11.09;75.17;99247.13;5051785;28;20021;-86
2022/03/12 02:44:25;;;;;;;3.63;0.75;;;;;;;11.07;75.28;99249.88;5051707;28;20104;-86
2022/03/12 02:47:21;;;;;;;1.45;0.38;;;;;;;10.87;75.74;99251.66;5052156;28;20118;-86
2022/03/12 02:50:08;;;;;;;1.77;0.50;;;;;;;10.96;75.23;99255.28;5051745;28;20025;-86
2022/03/12 02:52:40;;;;;;;1.83;0.50;;;;;;;10.88;76.07;99266.47;5051301;28;20052;-86
2022/03/12 02:55:06;;;;;;;1.80;0.50;;;;;;;10.70;76.89;99263.63;5050636;28;20025;-85
2022/03/12 02:57:31;;;;;;;2.25;0.60;;;;;;;10.90;75.67;99275.03;5051706;28;20501;-86
2022/03/12 03:00:04;;;;;;;6.95;0.60;;;;;;;11.04;75.16;99273.81;5051448;28;20041;-86
2022/03/12 03:02:53;;;;;;;2.08;0.50;;;;;;;11.14;74.97;99281.72;5051607;28;20368;-86
2022/03/12 03:05:33;;;;;;;3.78;0.50;;;;;;;11.08;74.76;99288.34;5052354;28;20021;-86
2022/03/12 03:08:00;;;;;;;5.18;0.50;;;;;;;11.21;74.43;99289.88;5052383;28;20025;-86
2022/03/12 03:10:35;;;;;;;3.30;0.50;;;;;;;11.27;73.82;99295.41;5047096;28;20033;-86
2022/03/12 03:13:16;;;;;;;2.40;0.47;;;;;;;11.33;74.01;99299.31;5052152;28;20394;-86
2022/03/12 03:15:53;;;;;;;1.90;0.30;;;;;;;11.22;73.83;99312.59;5052904;28;20565;-86
2022/03/12 03:18:22;;;;;;;5.18;0.55;;;;;;;10.95;74.67;99303.50;5054665;28;20470;-86
2022/03/12 03:20:48;;;;;;;2.65;0.32;;;;;;;11.14;73.71;99304.50;5056760;28;20483;-86
2022/03/12 03:23:14;;;;;;;2.15;0.45;;;;;;;11.10;73.59;99310.06;5056226;28;20033;-86
2022/03/12 03:25:40;;;;;;;1.60;0.32;;;;;;;11.02;73.64;99299.41;5054794;28;20108;-86
2022/03/12 03:28:07;;;;;;;2.35;0.50;;;;;;;11.11;73.53;99314.31;5055834;28;20040;-86
2022/03/12 03:30:38;;;;;;;1.58;0.35;;;;;;;11.17;73.23;99312.13;5056275;28;20021;-86
2022/03/12 03:33:07;;;;;;;1.95;0.50;;;;;;;11.17;73.69;99317.41;5056087;28;20022;-86
2022/03/12 03:35:32;;;;;;;3.25;0.40;;;;;;;11.07;73.64;99323.44;5055946;28;20262;-86
2022/03/12 03:37:58;;;;;;;1.30;0.40;;;;;;;11.17;73.21;99320.84;5055489;28;20131;-86
2022/03/12 03:40:26;;;;;;;2.40;0.50;;;;;;;11.16;72.92;99315.72;5055914;28;20036;-86
2022/03/12 03:42:53;;;;;;;1.75;0.40;;;;;;;11.12;72.91;99320.44;5053557;28;20467;-86
2022/03/12 03:45:24;;;;;;;5.20;0.73;;;;;;;11.04;73.32;99318.47;5054190;28;20112;-86
2022/03/12 03:47:50;;;;;;;4.55;0.50;;;;;;;10.98;73.68;99329.53;5055430;28;20075;-86
2022/03/12 03:50:18;;;;;;;5.13;0.70;;;;;;;10.76;73.95;99320.00;5055279;28;20438;-86
2022/03/12 03:52:44;;;;;;;6.25;0.70;;;;;;;10.80;73.89;99331.09;5055374;28;20052;-86
2022/03/12 03:55:09;;;;;;;4.72;0.65;;;;;;;10.85;73.75;99336.78;5054380;28;20033;-86
2022/03/12 03:57:35;;;;;;;4.13;0.40;;;;;;;10.91;73.44;99338.88;5055393;28;20028;-86
2022/03/12 04:00:00;;;;;;;5.05;0.63;;;;;;;10.94;73.08;99338.63;5055045;28;20033;-86
2022/03/12 04:02:25;;;;;;;1.90;0.43;;;;;;;10.86;73.08;99348.94;5055051;28;20033;-86
2022/03/12 04:04:52;;;;;;;1.65;0.52;;;;;;;10.80;73.41;99349.47;5055052;28;20036;-85
2022/03/12 04:07:17;;;;;;;5.85;0.82;;;;;;;10.54;73.56;99360.41;5055130;28;20025;-86
2022/03/12 04:09:43;;;;;;;3.33;0.63;;;;;;;10.60;73.08;99365.13;5055477;28;20497;-86
2022/03/12 04:12:08;;;;;;;4.35;0.50;;;;;;;10.66;72.90;99372.50;5055283;28;20017;-86
2022/03/12 04:14:34;;;;;;;8.63;0.70;;;;;;;10.58;73.18;99379.34;5055124;28;20029;-86
2022/03/12 04:17:00;;;;;;;2.80;0.57;;;;;;;10.60;73.28;99391.38;5054908;28;20102;-86
2022/03/12 04:19:30;;;;;;;4.53;0.60;;;;;;;10.38;73.62;99383.66;5054638;28;20039;-85
2022/03/12 04:21:57;;;;;;;2.28;0.30;;;;;;;10.31;73.75;99384.16;5053393;28;20029;-86
2022/03/12 04:24:24;;;;;;;3.03;0.50;;;;;;;10.67;72.47;99389.91;5054752;28;20025;-86
2022/03/12 04:26:50;;;;;;;0.70;0.40;;;;;;;10.50;72.96;99393.13;5054635;28;20025;-85
2022/03/12 04:29:18;;;;;;;3.72;0.57;;;;;;;10.43;72.60;99386.72;5053588;28;20033;-86
2022/03/12 04:31:46;;;;;;;2.83;0.50;;;;;;;10.34;72.99;99390.13;5054772;28;20472;-86
2022/03/12 04:34:13;;;;;;;2.38;0.40;;;;;;;10.16;73.93;99385.41;5054621;28;20036;-85
2022/03/12 04:36:41;;;;;;;2.85;0.35;;;;;;;10.17;73.85;99394.09;5053917;28;20036;-86
2022/03/12 04:39:08;;;;;;;4.90;0.60;;;;;;;10.32;73.36;99395.47;5054254;28;20029;-86
2022/03/12 04:41:34;;;;;;;3.30;0.65;;;;;;;10.12;73.79;99395.31;5054620;28;20025;-85
2022/03/12 04:44:00;;;;;;;6.05;0.60;;;;;;;9.81;73.98;99404.81;5054209;28;20059;-86
2022/03/12 04:46:25;;;;;;;3.33;0.50;;;;;;;9.76;74.78;99409.63;5054111;28;20383;-86
2022/03/12 04:48:50;;;;;;;3.60;0.70;;;;;;;9.66;74.88;99414.78;5052634;28;20032;-86
2022/03/12 04:51:16;;;;;;;2.42;0.30;;;;;;;9.62;74.75;99417.78;5053299;28;20083;-85
2022/03/12 04:53:42;;;;;;;6.03;0.75;;;;;;;9.55;74.84;99416.59;5053761;28;20514;-86
2022/03/12 04:56:09;;;;;;;2.83;0.60;;;;;;;9.58;75.33;99411.09;5053717;28;20021;-86
2022/03/12 04:58:34;;;;;;;5.70;0.70;;;;;;;9.65;74.57;99417.50;5053367;28;20025;-86
2022/03/12 05:01:00;;;;;;;1.27;0.35;;;;;;;9.63;74.85;99427.28;5053543;28;20087;-86
2022/03/12 05:03:25;;;;;;;7.50;1.00;;;;;;;9.56;75.21;99429.56;5053927;28;20064;-86
2022/03/12 05:05:53;;;;;;;6.07;0.60;;;;;;;9.51;75.22;99432.53;5053245;28;20359;-86
2022/03/12 05:08:24;;;;;;;5.47;0.98;;;;;;;9.57;75.34;99443.50;5053479;28;20501;-86
2022/03/12 05:10:53;;;;;;;9.93;0.63;;;;;;;9.60;74.93;99440.66;5053399;28;20075;-87
2022/03/12 05:13:22;;;;;;;4.88;1.00;;;;;;;9.65;74.50;99444.53;5052287;28;20439;-86
2022/03/12 05:15:52;;;;;;;10.82;1.50;;;;;;;9.49;75.19;99441.47;5051913;28;20033;-86
2022/03/12 05:18:19;;;;;;;3.38;0.60;;;;;;;9.49;75.40;99444.94;5053569;28;20368;-86
2022/03/12 05:20:46;;;;;;;8.85;1.20;;;;;;;9.38;75.66;99438.88;5052756;28;20029;-86
2022/03/12 05:23:12;;;;;;;7.68;0.77;;;;;;;9.48;75.58;99448.53;5053164;28;20108;-86
2022/03/12 05:25:40;;;;;;;3.53;0.85;;;;;;;9.49;75.16;99446.72;5053217;28;20103;-86
2022/03/12 05:28:06;;;;;;;8.52;1.17;;;;;;;9.51;75.82;99447.44;5052929;28;20079;-85
2022/03/12 05:30:32;;;;;;;9.85;1.10;;;;;;;9.45;75.77;99459.22;5052761;28;20025;-85
2022/03/12 05:32:57;;;;;;;7.90;1.30;;;;;;;9.37;76.11;99448.53;5053045;28;20025;-86
2022/03/12 05:35:23;;;;;;;8.95;0.85;;;;;;;9.41;76.13;99455.19;5052548;28;20036;-86
2022/03/12 05:37:50;;;;;;;14.00;1.50;;;;;;;9.43;76.51;99455.91;5051679;28;20105;-86
2022/03/12 05:40:20;;;;;;;8.90;1.67;;;;;;;9.48;75.92;99459.00;5052133;28;20045;-86
2022/03/12 05:42:48;;;;;;;9.13;1.27;;;;;;;9.47;75.85;99452.06;5052630;28;20029;-86
2022/03/12 05:45:16;;;;;;;8.00;1.50;;;;;;;9.45;76.18;99453.97;5052710;28;20025;-86
2022/03/12 05:47:42;;;;;;;14.10;1.40;;;;;;;9.42;76.21;99453.38;5052754;28;20124;-86
2022/03/12 05:50:09;;;;;;;7.82;1.30;;;;;;;9.39;76.35;99457.09;5052672;28;20526;-86
2022/03/12 05:52:45;;;;;;;12.93;1.25;;;;;;;9.52;76.29;99463.03;5052497;28;20021;-86
2022/03/12 05:55:12;;;;;;;21.15;4.20;;;;;;;9.49;76.25;99465.06;5051940;28;20024;-86
2022/03/12 05:57:38;;;;;;;11.75;2.92;;;;;;;9.41;76.40;99457.81;5052612;28;20151;-86
2022/03/12 06:00:07;;;;;;;9.65;1.73;;;;;;;9.56;75.96;99462.78;5052107;28;20116;-86
2022/03/12 06:02:32;;;;;;;15.27;1.27;;;;;;;9.52;75.92;99464.84;5052422;28;20033;-86
2022/03/12 06:04:58;;;;;;;17.17;2.10;;;;;;;9.61;75.42;99464.09;5052467;28;20028;-86
2022/03/12 06:07:27;;;;;;;12.45;1.45;;;;;;;9.50;75.63;99475.44;5052301;28;20032;-86
2022/03/12 06:09:56;;;;;;;9.80;1.40;;;;;;;9.51;75.97;99479.72;5052079;28;20386;-86
2022/03/12 06:12:25;;;;;;;13.73;1.15;;;;;;;9.64;75.66;99486.63;5052589;28;20029;-86
2022/03/12 06:14:55;;;;;;;14.65;2.28;;;;;;;9.67;75.94;99478.50;5052013;28;20394;-86
2022/03/12 06:17:23;;;;;;;10.45;1.45;;;;;;;9.59;75.91;99473.88;5052167;28;20023;-86
2022/03/12 06:19:49;;;;;;;13.88;2.55;;;;;;;9.59;76.02;99480.91;5051839;28;20059;-86
2022/03/12 06:22:14;;;;;;;11.77;1.55;;;;;;;9.78;75.01;99480.28;5052294;28;20553;-87
2022/03/12 06:24:40;;;;;;;10.90;1.42;;;;;;;9.55;75.93;99476.84;5051526;28;20025;-86
2022/03/12 06:27:06;;;;;;;9.77;1.20;;;;;;;9.68;75.77;99485.44;5051839;28;20028;-86
2022/03/12 06:29:32;;;;;;;11.73;1.52;;;;;;;9.75;75.17;99481.34;5052151;28;20430;-86
2022/03/12 06:31:58;;;;;;;15.10;1.77;;;;;;;9.77;75.18;99484.69;5052051;28;20107;-86
2022/03/12 06:34:24;;;;;;;19.63;1.50;;;;;;;9.67;75.46;99499.47;5051865;28;20029;-86
2022/03/12 06:36:49;;;;;;;17.23;1.90;;;;;;;9.67;75.78;99492.44;5067357;28;20490;-86
2022/03/12 06:39:15;;;;;;;10.90;1.63;;;;;;;9.71;75.61;99495.66;5051398;28;20396;-86
2022/03/12 06:41:45;;;;;;;13.32;1.48;;;;;;;9.72;75.69;99498.16;5051738;28;20025;-86
2022/03/12 06:44:11;;;;;;;13.70;1.60;;;;;;;9.72;75.77;99508.66;5051642;28;20442;-86
2022/03/12 06:46:37;;;;;;;13.10;2.00;;;;;;;9.78;75.67;99517.81;5051842;28;20052;-86
2022/03/12 06:49:06;;;;;;;10.85;2.03;;;;;;;9.83;75.33;99515.66;5052375;28;20049;-85
2022/03/12 06:51:33;;;;;;;13.48;1.85;;;;;;;9.77;75.23;99505.66;5051159;28;20025;-85
2022/03/12 06:53:59;;;;;;;22.88;2.28;;;;;;;9.73;75.59;99506.84;5053642;28;20021;-85
2022/03/12 06:56:24;;;;;;;17.30;2.42;;;;;;;9.81;75.58;99511.50;5057292;28;20052;-85
2022/03/12 06:58:50;;;;;;;14.27;1.98;;;;;;;9.90;75.15;99527.34;5056302;28;20124;-85
2022/03/12 07:01:15;;;;;;;11.05;1.95;;;;;;;9.86;75.08;99536.41;5054619;28;20052;-85
2022/03/12 07:03:41;;;;;;;10.75;2.47;;;;;;;9.97;74.71;99532.09;5056683;28;20063;-86
2022/03/12 07:06:07;;;;;;;14.63;2.05;;;;;;;9.99;74.95;99545.91;5055177;28;20028;-85
2022/03/12 07:08:33;;;;;;;8.32;1.25;;;;;;;10.00;74.84;99547.59;5055124;28;20021;-85
2022/03/12 07:10:59;;;;;;;19.95;2.20;;;;;;;9.97;74.84;99547.81;5057336;28;20422;-85
2022/03/12 07:13:24;;;;;;;14.95;1.67;;;;;;;10.00;74.86;99558.91;5055221;28;20540;-85
2022/03/12 07:15:50;;;;;;;14.30;1.85;;;;;;;9.88;75.19;99560.72;5056105;28;20498;-85
2022/03/12 07:18:15;;;;;;;13.95;2.45;;;;;;;9.91;75.30;99559.63;5054973;28;20025;-85
2022/03/12 07:20:41;;;;;;;20.13;2.45;;;;;;;10.04;74.63;99564.75;5055121;28;20391;-85
2022/03/12 07:23:07;;;;;;;12.60;1.83;;;;;;;9.97;75.01;99566.19;5054861;28;20013;-86
2022/03/12 07:25:33;;;;;;;11.73;1.60;;;;;;;10.12;74.65;99562.34;5054826;28;20021;-85
2022/03/12 07:27:58;;;;;;;14.18;2.28;;;;;;;10.28;74.55;99568.03;5055122;28;20032;-85
2022/03/12 07:30:23;;;;;;;15.40;1.73;;;;;;;10.24;74.36;99578.91;5054963;28;20025;-85
2022/03/12 07:32:49;;;;;;;14.65;2.13;;;;;;;10.47;74.55;99574.47;5053622;28;20029;-85
2022/03/12 07:35:17;;;;;;;16.63;3.33;;;;;;;11.07;73.90;99591.41;5054307;28;20056;-84
2022/03/12 07:37:44;;;;;;;14.15;1.40;;;;;;;12.04;72.65;99582.38;5054573;28;20094;-85
2022/03/12 07:40:15;;;;;;;12.45;1.70;;;;;;;13.39;70.01;99588.72;5053554;28;20430;-86
2022/03/12 07:42:40;;;;;;;12.55;1.95;;;;;;;14.40;68.89;99594.13;5055505;28;20112;-86
2022/03/12 07:45:08;;;;;;;16.30;1.77;;;;;;;14.94;66.15;99596.81;5054697;28;20064;-86
2022/03/12 07:47:34;;;;;;;12.05;1.83;;;;;;;15.26;63.67;99604.19;5054984;28;20055;-85
2022/03/12 07:49:59;;;;;;;10.32;1.30;;;;;;;15.70;62.99;99613.88;5053739;28;20021;-84
2022/03/12 07:52:25;;;;;;;10.40;1.30;;;;;;;15.99;61.20;99618.84;5053039;28;20443;-84
2022/03/12 07:54:50;;;;;;;7.30;1.40;;;;;;;16.06;58.54;99616.41;5054708;28;20531;-84
2022/03/12 07:57:16;;;;;;;11.15;1.80;;;;;;;15.80;58.38;99609.34;5053953;28;20386;-84
2022/03/12 07:59:42;;;;;;;10.73;1.23;;;;;;;16.27;58.42;99605.38;5054102;28;20083;-84
2022/03/12 08:02:07;;;;;;;8.32;1.50;;;;;;;16.71;57.23;99625.56;5054155;28;20029;-84
2022/03/12 08:04:33;;;;;;;7.30;1.13;;;;;;;17.21;54.75;99630.75;5047992;28;20037;-87
2022/03/12 08:07:02;;;;;;;9.07;1.40;;;;;;;17.61;54.77;99626.41;5053456;28;20083;-84
2022/03/12 08:09:28;;;;;;;9.30;1.20;;;;;;;17.68;54.88;99626.56;5053940;28;20028;-85
2022/03/12 08:11:54;;;;;;;11.85;1.75;;;;;;;18.17;54.02;99634.41;5061965;28;20099;-84
2022/03/12 08:14:22;;;;;;;8.23;1.42;;;;;;;18.31;51.51;99640.00;5053686;28;20056;-83
2022/03/12 08:16:49;;;;;;;6.75;1.65;;;;;;;18.69;51.54;99646.25;5069236;28;20029;-84
2022/03/12 08:19:15;;;;;;;7.22;1.10;;;;;;;19.16;49.14;99652.47;5052916;28;20075;-85
2022/03/12 08:21:41;;;;;;;13.40;1.80;;;;;;;19.59;50.18;99658.91;5053563;28;20017;-85
2022/03/12 08:24:07;;;;;;;8.48;1.60;;;;;;;19.98;49.39;99662.38;5069099;28;20024;-85
2022/03/12 08:26:34;;;;;;;10.98;1.30;;;;;;;20.59;49.03;99670.16;5067875;28;20063;-83
2022/03/12 08:29:00;;;;;;;9.93;1.42;;;;;;;20.97;47.02;99665.44;5067956;28;20037;-84
2022/03/12 08:31:25;;;;;;;9.95;1.67;;;;;;;20.28;47.42;99671.19;5071012;28;20020;-84
2022/03/12 08:33:51;;;;;;;11.48;1.98;;;;;;;20.34;46.45;99666.94;5062355;28;20033;-85
2022/03/12 08:36:16;;;;;;;8.60;1.25;;;;;;;20.57;46.18;99661.47;5059301;28;20037;-84
2022/03/12 08:38:42;;;;;;;12.32;2.42;;;;;;;20.43;46.95;99660.50;5059124;28;20032;-84
2022/03/12 08:41:10;;;;;;;7.38;1.40;;;;;;;20.65;47.14;99664.06;5074097;28;20024;-85
2022/03/12 08:43:36;;;;;;;9.07;1.58;;;;;;;20.03;46.42;99667.97;5069295;28;20020;-84
2022/03/12 08:46:04;;;;;;;11.10;1.45;;;;;;;20.47;45.30;99685.78;5063145;28;20495;-84
2022/03/12 08:48:30;;;;;;;10.10;2.13;;;;;;;20.45;46.48;99679.81;5071027;28;20036;-85
2022/03/12 08:50:55;;;;;;;6.18;1.30;;;;;;;20.98;45.49;99695.63;5073729;28;20053;-84
2022/03/12 08:53:21;;;;;;;9.43;1.50;;;;;;;20.55;44.96;99696.34;5055027;28;20112;-84
2022/03/12 08:55:48;;;;;;;6.90;1.33;;;;;;;20.82;43.52;99703.88;5053186;28;20398;-85
2022/03/12 08:58:14;;;;;;;11.02;1.42;;;;;;;20.59;45.32;99707.50;5051152;28;20022;-85
2022/03/12 09:00:39;;;;;;;8.55;1.35;;;;;;;20.86;44.48;99713.97;5053488;28;20439;-85
2022/03/12 09:03:07;;;;;;;9.40;1.63;;;;;;;20.86;45.00;99715.81;5053387;28;20074;-85
2022/03/12 09:05:33;;;;;;;11.15;1.80;;;;;;;21.15;42.97;99712.25;5053654;28;20032;-84
2022/03/12 09:07:58;;;;;;;9.55;1.40;;;;;;;21.60;42.72;99704.84;5052929;28;20021;-85
2022/03/12 09:10:24;;;;;;;6.68;1.25;;;;;;;21.17;42.90;99705.69;5057604;28;20025;-86
2022/03/12 09:12:50;;;;;;;9.57;1.08;;;;;;;21.52;44.18;99726.34;5073496;28;20099;-85
2022/03/12 09:15:21;;;;;;;5.13;1.23;;;;;;;21.59;42.37;99725.41;5054953;28;20022;-85
2022/03/12 09:17:47;;;;;;;5.97;1.35;;;;;;;21.44;42.84;99721.16;5053040;28;20106;-85
2022/03/12 09:20:13;;;;;;;9.68;1.25;;;;;;;20.66;43.29;99728.94;5052331;28;20651;-85
2022/03/12 09:22:38;;;;;;;8.00;1.23;;;;;;;19.50;45.94;99712.41;5053487;28;20433;-86
2022/03/12 09:25:06;;;;;;;8.40;1.27;;;;;;;20.84;44.58;99708.00;5052511;28;20533;-86
2022/03/12 09:27:31;;;;;;;9.27;1.40;;;;;;;20.26;44.35;99699.03;5053304;28;20033;-85
2022/03/12 09:29:56;;;;;;;7.50;0.80;;;;;;;20.63;43.60;99702.63;5053990;28;20028;-86
2022/03/12 09:32:22;;;;;;;3.88;1.10;;;;;;;21.62;42.61;99697.47;5053385;28;20029;-86
2022/03/12 09:34:47;;;;;;;10.48;1.45;;;;;;;21.56;42.67;99696.41;5052596;28;21197;-85
2022/03/12 09:37:13;;;;;;;10.15;1.48;;;;;;;20.36;43.23;99718.25;5053024;28;20032;-85
2022/03/12 09:39:39;;;;;;;8.55;1.38;;;;;;;19.38;45.69;99718.16;5052060;28;20029;-85
2022/03/12 09:42:05;;;;;;;5.15;0.95;;;;;;;19.95;43.97;99726.69;5052619;28;20029;-85
2022/03/12 09:44:30;;;;;;;11.30;1.85;;;;;;;20.58;43.51;99725.31;5052509;28;20033;-85
2022/03/12 09:46:55;;;;;;;8.25;1.10;;;;;;;19.95;42.63;99734.69;5052327;28;20024;-85
2022/03/12 09:49:21;;;;;;;12.45;1.52;;;;;;;19.59;45.38;99730.00;5067884;28;20029;-85
2022/03/12 09:51:47;;;;;;;6.88;2.42;;;;;;;20.41;44.01;99726.50;5052492;28;20040;-85
2022/03/12 09:54:13;;;;;;;11.27;2.03;;;;;;;20.67;43.20;99720.72;5052100;28;20049;-86
2022/03/12 09:56:38;;;;;;;8.10;1.60;;;;;;;21.00;42.92;99721.09;5052286;28;20479;-86
2022/03/12 09:59:05;;;;;;;6.72;1.23;;;;;;;20.24;43.23;99725.03;5051955;28;20067;-85
2022/03/12 10:01:31;;;;;;;8.80;1.30;;;;;;;21.38;41.19;99722.72;5052727;28;20052;-85
2022/03/12 10:03:56;;;;;;;10.52;2.28;;;;;;;22.71;39.48;99720.97;5048276;28;20033;-84
2022/03/12 10:06:22;;;;;;;6.65;1.40;;;;;;;23.16;39.25;99723.16;5048013;28;20128;-85
2022/03/12 10:08:48;;;;;;;7.35;1.08;;;;;;;22.74;37.20;99723.22;5046664;28;20029;-85
2022/03/12 10:11:13;;;;;;;8.30;1.52;;;;;;;22.29;39.11;99719.31;5041803;28;20049;-86
2022/03/12 10:13:39;;;;;;;9.43;1.40;;;;;;;21.64;40.55;99726.66;5036524;28;20044;-85
2022/03/12 10:16:05;;;;;;;4.93;1.20;;;;;;;21.20;40.61;99723.16;5046940;28;20029;-85
2022/03/12 10:18:30;;;;;;;8.60;1.38;;;;;;;20.57;42.87;99726.31;5046735;28;20024;-86
2022/03/12 10:21:00;;;;;;;8.43;1.83;;;;;;;19.19;44.40;99724.78;5047273;28;20093;-87
2022/03/12 10:23:26;;;;;;;7.80;1.30;;;;;;;18.36;46.21;99728.00;5046978;28;20537;-87
2022/03/12 10:25:51;;;;;;;12.65;2.85;;;;;;;18.05;45.99;99726.09;5046324;28;20040;-86
2022/03/12 10:28:18;;;;;;;9.70;1.33;;;;;;;19.50;46.18;99723.06;5041962;28;20056;-87
2022/03/12 10:30:43;;;;;;;9.15;1.27;;;;;;;20.93;43.32;99720.22;5034105;28;20252;-87
2022/03/12 10:33:09;;;;;;;9.27;1.40;;;;;;;22.09;39.74;99722.66;5047075;28;20071;-86
2022/03/12 10:35:37;;;;;;;11.48;2.00;;;;;;;21.70;40.28;99726.72;5047548;28;20047;-86
2022/03/12 10:38:10;;;;;;;5.78;1.33;;;;;;;20.54;40.21;99736.53;5048243;28;20021;-86
2022/03/12 10:40:36;;;;;;;6.70;1.23;;;;;;;20.97;41.52;99734.00;5053786;28;20101;-85
2022/03/12 10:43:13;;;;;;;10.98;1.70;;;;;;;22.10;39.71;99737.72;5057096;28;20033;-86
2022/03/12 10:45:56;;;;;;;6.80;1.80;;;;;;;21.99;38.22;99719.53;5047498;28;20060;-86
2022/03/12 10:48:22;;;;;;;6.43;1.40;;;;;;;20.74;41.53;99729.63;5047157;28;20033;-85
2022/03/12 10:50:50;;;;;;;7.85;1.08;;;;;;;20.31;40.98;99726.78;5056116;28;20074;-85
2022/03/12 10:53:17;;;;;;;10.30;2.58;;;;;;;18.46;43.85;99723.31;5059835;28;20036;-85
2022/03/12 10:55:47;;;;;;;5.35;1.25;;;;;;;17.57;46.38;99725.09;5045538;28;20583;-84
2022/03/12 10:58:15;;;;;;;6.53;1.52;;;;;;;17.31;47.80;99735.88;5047624;28;20510;-84
2022/03/12 11:00:59;;;;;;;5.78;1.20;;;;;;;17.38;50.03;99737.72;5054764;28;20033;-85
2022/03/12 11:03:27;;;;;;;2.45;0.60;;;;;;;17.28;50.57;99734.41;5068141;28;20063;-85
2022/03/12 11:05:55;;;;;;;2.95;0.45;;;;;;;16.70;50.47;99737.84;5065036;28;20449;-85
2022/03/12 11:08:23;;;;;;;1.45;0.43;;;;;;;16.82;51.21;99741.91;5045826;28;20560;-85
2022/03/12 11:10:54;;;;;;;2.83;0.60;;;;;;;16.79;52.26;99726.31;5045044;28;20052;-85
2022/03/12 11:13:44;;;;;;;8.68;0.68;;;;;;;17.09;50.96;99719.59;5047512;28;20514;-85
2022/03/12 11:16:33;;;;;;;6.40;0.63;;;;;;;16.94;51.87;99710.63;5046270;28;20029;-85
2022/03/12 11:18:58;;;;;;;6.72;1.27;;;;;;;17.71;50.71;99715.66;5047597;28;20036;-85
2022/03/12 11:21:33;;;;;;;4.38;1.00;;;;;;;17.69;50.35;99723.78;5047354;28;20033;-85
2022/03/12 11:24:00;;;;;;;3.38;0.70;;;;;;;17.63;49.74;99713.81;5046950;28;20035;-85
2022/03/12 11:26:26;;;;;;;5.88;1.27;;;;;;;17.15;50.77;99724.25;5047564;28;20063;-85
2022/03/12 11:28:57;;;;;;;7.75;1.20;;;;;;;17.74;50.11;99724.13;5047712;28;20403;-85
2022/03/12 11:31:52;;;;;;;9.02;2.03;;;;;;;17.38;48.41;99726.28;5047172;28;20479;-85